Time;durP1;ratioP1;P1;durP2;ratioP2;P2;SDS_P1;SDS_P2;PMS_P1;PMS_P2;Temp;Humidity;BMP_temperature;BMP_pressure;BME280_temperature;BME280_humidity;BME280_pressure;Samples;Min_cycle;Max_cycle;Signal;HPM_P1;HPM_P2
2022/12/08 00:02:12;;;;;;;42.03;33.92;;;;;;;2.06;100.00;100965.31;5006038;28;20053;-83
2022/12/08 00:09:20;;;;;;;37.85;33.50;;;;;;;1.97;100.00;100949.69;5015253;28;20033;-84
2022/12/08 00:10:07;;;;;;;41.55;35.13;;;;;;;1.99;100.00;100958.41;5015604;28;20048;-84
2022/12/08 00:12:33;;;;;;;42.78;34.58;;;;;;;1.99;100.00;100954.03;5020366;28;20728;-84
2022/12/08 00:14:58;;;;;;;45.60;37.05;;;;;;;2.07;100.00;100955.69;5022796;28;20022;-84
2022/12/08 00:17:24;;;;;;;46.67;36.35;;;;;;;2.00;100.00;100932.13;5023299;28;20490;-84
2022/12/08 00:19:49;;;;;;;43.03;35.85;;;;;;;2.07;100.00;100929.41;5008875;28;20052;-84
2022/12/08 00:22:14;;;;;;;44.63;35.78;;;;;;;2.06;100.00;100930.31;5010897;28;20022;-84
2022/12/08 00:24:43;;;;;;;44.40;36.70;;;;;;;2.04;100.00;100927.69;5014006;28;20495;-84
2022/12/08 00:27:09;;;;;;;51.47;39.58;;;;;;;1.99;100.00;100927.75;5016092;28;20057;-84
2022/12/08 00:29:35;;;;;;;51.00;39.17;;;;;;;1.99;100.00;100925.13;5009326;28;20036;-83
2022/12/08 00:32:00;;;;;;;51.13;39.85;;;;;;;1.97;100.00;100928.69;5003551;28;20485;-84
2022/12/08 00:34:25;;;;;;;48.63;39.30;;;;;;;1.96;100.00;100930.44;4993594;28;20026;-83
2022/12/08 00:36:51;;;;;;;54.30;41.63;;;;;;;1.96;100.00;100922.53;5007863;28;20160;-84
2022/12/08 00:39:16;;;;;;;49.75;41.45;;;;;;;1.98;100.00;100923.41;5009830;28;20356;-84
2022/12/08 00:44:26;;;;;;;52.45;42.55;;;;;;;1.98;100.00;100926.03;5013451;28;20083;-83
2022/12/08 00:46:52;;;;;;;49.92;40.88;;;;;;;2.02;100.00;100931.25;5016198;28;20710;-84
2022/12/08 00:49:17;;;;;;;55.17;43.40;;;;;;;1.98;100.00;100918.16;5016328;28;20033;-84
2022/12/08 00:51:43;;;;;;;54.58;42.25;;;;;;;1.98;100.00;100920.78;5017777;28;20422;-84
2022/12/08 00:54:09;;;;;;;52.03;41.55;;;;;;;1.99;100.00;100914.63;5030155;28;20029;-84
2022/12/08 00:56:35;;;;;;;52.17;42.30;;;;;;;2.05;100.00;100920.69;5001509;28;20026;-84
2022/12/08 00:59:03;;;;;;;56.25;43.03;;;;;;;1.98;100.00;100912.91;5014506;28;20040;-83
2022/12/08 01:01:28;;;;;;;57.22;43.72;;;;;;;1.92;100.00;100907.75;5012145;28;20037;-83
2022/12/08 01:03:54;;;;;;;54.95;43.30;;;;;;;1.98;100.00;100910.28;5009384;28;20030;-84
2022/12/08 01:06:19;;;;;;;51.08;41.75;;;;;;;1.98;100.00;100899.78;5014147;28;20040;-84
2022/12/08 01:08:45;;;;;;;52.97;42.33;;;;;;;1.97;100.00;100903.31;5019207;28;20025;-83
2022/12/08 01:11:16;;;;;;;51.72;42.53;;;;;;;1.97;100.00;100905.94;5017454;28;20069;-84
2022/12/08 01:13:41;;;;;;;49.30;40.10;;;;;;;1.94;100.00;100892.84;5029341;28;20029;-84
2022/12/08 01:16:07;;;;;;;49.72;39.78;;;;;;;1.99;100.00;100893.63;5028035;28;20045;-84
2022/12/08 01:18:33;;;;;;;47.80;39.25;;;;;;;1.98;100.00;100894.53;5025270;28;20046;-83
2022/12/08 01:21:03;;;;;;;47.47;38.90;;;;;;;1.97;100.00;100894.56;5011146;28;20045;-82
2022/12/08 01:23:29;;;;;;;48.92;38.95;;;;;;;2.01;100.00;100898.88;5017748;28;20034;-83
2022/12/08 01:25:54;;;;;;;47.00;37.28;;;;;;;1.99;100.00;100888.38;5012174;28;20395;-83
2022/12/08 01:28:19;;;;;;;47.97;36.80;;;;;;;1.98;100.00;100888.41;5012354;28;20029;-83
2022/12/08 01:30:44;;;;;;;41.70;36.05;;;;;;;1.95;100.00;100894.56;5013554;28;20029;-82
2022/12/08 01:33:10;;;;;;;48.35;37.67;;;;;;;1.93;100.00;100895.50;5013887;28;20032;-83
2022/12/08 01:35:35;;;;;;;47.05;37.45;;;;;;;1.89;100.00;100889.44;4998462;28;20570;-84
2022/12/08 01:38:00;;;;;;;44.90;36.00;;;;;;;1.86;100.00;100884.22;5003564;28;20041;-84
2022/12/08 01:40:25;;;;;;;44.47;35.97;;;;;;;1.89;100.00;100889.44;5008698;28;20029;-83
2022/12/08 01:42:51;;;;;;;46.63;36.17;;;;;;;1.92;100.00;100889.41;5005632;28;20034;-84
2022/12/08 01:45:23;;;;;;;42.20;35.53;;;;;;;1.96;100.00;100891.06;5005741;28;20084;-84
2022/12/08 01:47:52;;;;;;;44.03;35.92;;;;;;;2.03;100.00;100890.97;5007377;28;20037;-84
2022/12/08 01:50:20;;;;;;;44.15;36.53;;;;;;;2.04;100.00;100890.06;5004072;28;20041;-84
2022/12/08 01:52:51;;;;;;;42.80;34.58;;;;;;;2.08;100.00;100889.13;5004866;28;20029;-84
2022/12/08 01:55:21;;;;;;;40.40;33.85;;;;;;;2.10;100.00;100882.13;5003482;28;20025;-84
2022/12/08 01:57:50;;;;;;;42.15;34.47;;;;;;;2.12;100.00;100880.31;5009007;28;20026;-84
2022/12/08 02:00:19;;;;;;;42.78;34.72;;;;;;;2.11;100.00;100884.72;5005144;28;20025;-84
2022/12/08 02:02:58;;;;;;;41.67;34.60;;;;;;;2.13;100.00;100876.81;4999877;28;20030;-84
2022/12/08 02:05:27;;;;;;;41.60;33.75;;;;;;;2.13;100.00;100876.81;4999835;28;20034;-84
2022/12/08 02:07:54;;;;;;;39.38;33.25;;;;;;;2.14;100.00;100871.53;5005899;28;20244;-84
2022/12/08 02:10:21;;;;;;;40.50;32.83;;;;;;;2.13;100.00;100876.81;5006139;28;20036;-84
2022/12/08 02:12:50;;;;;;;39.67;32.83;;;;;;;2.06;100.00;100855.03;5013113;28;20037;-84
2022/12/08 02:15:16;;;;;;;42.65;32.60;;;;;;;2.05;100.00;100855.03;5007474;28;20021;-83
2022/12/08 02:18:00;;;;;;;44.08;33.22;;;;;;;2.08;100.00;100855.88;4999116;28;20033;-83
2022/12/08 02:20:48;;;;;;;39.35;32.55;;;;;;;2.08;100.00;100858.50;5005531;28;20142;-83
2022/12/08 02:23:30;;;;;;;41.00;32.75;;;;;;;2.09;100.00;100854.09;5012005;28;20057;-84
2022/12/08 02:26:10;;;;;;;39.90;31.75;;;;;;;2.10;100.00;100850.63;4998502;28;20034;-83
2022/12/08 02:28:45;;;;;;;36.15;30.00;;;;;;;2.09;100.00;100846.22;5000470;28;20034;-84
2022/12/08 02:31:16;;;;;;;37.58;29.65;;;;;;;2.07;100.00;100845.41;5006444;28;20001;-83
2022/12/08 02:33:57;;;;;;;36.42;29.92;;;;;;;2.04;100.00;100838.44;5005414;28;20494;-83
2022/12/08 02:36:31;;;;;;;35.53;29.25;;;;;;;2.03;100.00;100843.72;5004355;28;20038;-85
2022/12/08 02:39:03;;;;;;;34.72;28.75;;;;;;;2.02;100.00;100837.59;5002138;28;20043;-83
2022/12/08 02:41:44;;;;;;;34.28;27.70;;;;;;;2.00;100.00;100831.50;5003913;28;20088;-83
2022/12/08 02:44:30;;;;;;;32.10;26.55;;;;;;;1.97;100.00;100818.44;5005680;28;20562;-83
2022/12/08 02:47:07;;;;;;;31.40;25.48;;;;;;;1.94;100.00;100823.72;5006680;28;20022;-83
2022/12/08 02:49:34;;;;;;;31.52;26.02;;;;;;;1.90;100.00;100817.66;5007869;28;20018;-83
2022/12/08 02:52:26;;;;;;;29.33;24.17;;;;;;;1.87;100.00;100824.72;5007840;28;20356;-83
2022/12/08 02:54:57;;;;;;;29.02;24.50;;;;;;;1.86;100.00;100818.59;5008024;28;20038;-83
2022/12/08 02:57:25;;;;;;;30.30;24.02;;;;;;;1.88;100.00;100813.31;5006934;28;20025;-84
2022/12/08 03:00:03;;;;;;;28.05;23.65;;;;;;;1.88;100.00;100811.59;5007381;28;20041;-84
2022/12/08 03:02:43;;;;;;;30.35;23.50;;;;;;;1.87;100.00;100801.94;4991838;28;20109;-84
2022/12/08 03:05:24;;;;;;;33.42;24.02;;;;;;;1.89;100.00;100807.19;4997184;28;20469;-83
2022/12/08 03:08:01;;;;;;;31.02;24.42;;;;;;;1.90;100.00;100798.44;5004635;28;20061;-84
2022/12/08 03:10:39;;;;;;;30.42;24.33;;;;;;;1.91;100.00;100801.00;5005147;28;20037;-84
2022/12/08 03:13:21;;;;;;;33.60;26.00;;;;;;;1.89;100.00;100788.81;4998683;28;20475;-84
2022/12/08 03:15:49;;;;;;;31.88;26.38;;;;;;;1.92;100.00;100789.66;5004523;28;20109;-84
2022/12/08 03:18:18;;;;;;;29.98;24.30;;;;;;;1.94;100.00;100790.47;5010579;28;20034;-83
2022/12/08 03:20:46;;;;;;;30.52;25.73;;;;;;;1.94;100.00;100789.63;5008420;28;20482;-83
2022/12/08 03:23:15;;;;;;;30.92;25.35;;;;;;;1.93;100.00;100785.25;4995547;28;20046;-84
2022/12/08 03:25:49;;;;;;;32.05;24.90;;;;;;;1.94;100.00;100786.97;5004590;28;20034;-84
2022/12/08 03:28:15;;;;;;;31.33;24.60;;;;;;;1.95;100.00;100783.47;5006347;28;20022;-83
2022/12/08 03:30:44;;;;;;;32.40;25.42;;;;;;;1.96;100.00;100774.69;5004341;28;20444;-84
2022/12/08 03:33:18;;;;;;;31.55;24.83;;;;;;;1.90;100.00;100759.06;4997470;28;20097;-84
2022/12/08 03:35:45;;;;;;;33.28;24.98;;;;;;;1.92;100.00;100767.75;5007415;28;20105;-84
2022/12/08 03:38:13;;;;;;;35.50;25.60;;;;;;;1.96;100.00;100775.56;5005465;28;20048;-83
2022/12/08 03:40:39;;;;;;;31.80;24.80;;;;;;;1.96;100.00;100770.28;5003714;28;20034;-84
2022/12/08 03:43:05;;;;;;;36.85;27.90;;;;;;;1.98;100.00;100765.03;5008046;28;20037;-84
2022/12/08 03:45:30;;;;;;;40.30;29.65;;;;;;;1.96;100.00;100762.44;5001224;28;20415;-84
2022/12/08 03:47:56;;;;;;;44.03;33.17;;;;;;;1.99;100.00;100762.38;5006479;28;20034;-84
2022/12/08 03:50:22;;;;;;;44.58;34.20;;;;;;;2.03;100.00;100763.19;5005148;28;20050;-83
2022/12/08 03:52:48;;;;;;;53.03;37.60;;;;;;;2.05;100.00;100760.53;5007476;28;20025;-83
2022/12/08 03:55:14;;;;;;;59.55;40.47;;;;;;;2.06;100.00;100765.78;5012655;28;20083;-84
2022/12/08 03:57:39;;;;;;;52.92;37.17;;;;;;;2.02;100.00;100747.50;5011191;28;20030;-83
2022/12/08 04:00:08;;;;;;;58.10;39.78;;;;;;;2.05;100.00;100753.56;5009053;28;20036;-83
2022/12/08 04:02:33;;;;;;;67.70;43.60;;;;;;;2.08;100.00;100752.63;5018850;28;20358;-84
2022/12/08 04:04:59;;;;;;;68.80;46.05;;;;;;;2.06;100.00;100749.16;5022496;28;20061;-84
2022/12/08 04:07:24;;;;;;;68.18;46.83;;;;;;;2.03;100.00;100744.81;5014762;28;20042;-85
2022/12/08 04:09:49;;;;;;;72.07;47.67;;;;;;;2.05;100.00;100750.94;5004358;28;20105;-84
2022/12/08 04:12:15;;;;;;;72.05;48.25;;;;;;;2.07;100.00;100745.63;5003051;28;20026;-84
2022/12/08 04:14:40;;;;;;;71.00;47.50;;;;;;;2.06;100.00;100743.91;5002627;28;20105;-84
2022/12/08 04:17:05;;;;;;;75.40;50.05;;;;;;;2.08;100.00;100747.38;4990142;28;20117;-83
2022/12/08 04:19:31;;;;;;;73.03;49.60;;;;;;;2.08;100.00;100742.13;5000921;28;20031;-84
2022/12/08 04:21:56;;;;;;;71.55;46.90;;;;;;;2.08;100.00;100745.59;4996146;28;20109;-83
2022/12/08 04:24:21;;;;;;;69.35;45.97;;;;;;;2.05;100.00;100736.91;4999139;28;20149;-83
2022/12/08 04:26:48;;;;;;;69.18;45.97;;;;;;;2.07;100.00;100737.75;5000876;28;20430;-84
2022/12/08 04:29:14;;;;;;;62.75;43.67;;;;;;;2.05;100.00;100735.19;4998290;28;20033;-84
2022/12/08 04:31:39;;;;;;;63.50;42.88;;;;;;;2.02;100.00;100732.59;5006197;28;20060;-84
2022/12/08 04:34:04;;;;;;;60.38;41.70;;;;;;;2.04;100.00;100729.94;5001672;28;20125;-83
2022/12/08 04:36:29;;;;;;;58.75;40.65;;;;;;;2.03;100.00;100729.06;5001530;28;20126;-83
2022/12/08 04:38:55;;;;;;;58.67;39.13;;;;;;;2.00;100.00;100735.22;5002502;28;20508;-82
2022/12/08 04:41:20;;;;;;;57.67;38.78;;;;;;;1.99;100.00;100733.50;5005338;28;20088;-83
2022/12/08 04:43:45;;;;;;;56.88;38.28;;;;;;;1.96;100.00;100724.81;5003617;28;20025;-83
2022/12/08 04:46:11;;;;;;;53.90;37.30;;;;;;;1.98;100.00;100718.66;5006619;28;20038;-82
2022/12/08 04:48:37;;;;;;;52.90;35.92;;;;;;;2.00;100.00;100724.72;5009582;28;20026;-83
2022/12/08 04:51:03;;;;;;;46.45;33.85;;;;;;;2.00;100.00;100719.47;5000804;28;20576;-83
2022/12/08 04:53:28;;;;;;;47.60;33.38;;;;;;;1.99;100.00;100716.88;5008574;28;20029;-82
2022/12/08 04:55:53;;;;;;;44.08;31.83;;;;;;;1.98;100.00;100717.78;5011279;28;20061;-83
2022/12/08 04:58:19;;;;;;;42.55;30.88;;;;;;;1.96;100.00;100712.56;5007109;28;20033;-83
2022/12/08 05:00:45;;;;;;;38.83;29.13;;;;;;;1.92;100.00;100705.66;5004244;28;20038;-80
2022/12/08 05:03:11;;;;;;;39.42;28.73;;;;;;;1.93;100.00;100704.75;5011268;28;20523;-83
2022/12/08 05:05:36;;;;;;;39.42;28.42;;;;;;;1.93;100.00;100712.63;5010579;28;20036;-83
2022/12/08 05:08:02;;;;;;;39.35;27.65;;;;;;;1.93;100.00;100727.50;5012695;28;20029;-82
2022/12/08 05:10:27;;;;;;;37.38;27.98;;;;;;;1.92;100.00;100717.88;5004654;28;20120;-82
2022/12/08 05:12:53;;;;;;;37.65;26.73;;;;;;;1.92;100.00;100723.13;5002623;28;20037;-83
2022/12/08 05:15:18;;;;;;;35.63;25.83;;;;;;;1.93;100.00;100723.13;5006713;28;20029;-83
2022/12/08 05:17:43;;;;;;;31.92;23.73;;;;;;;1.94;100.00;100721.38;5005860;28;20034;-82
2022/12/08 05:20:09;;;;;;;24.75;18.60;;;;;;;1.90;100.00;100712.69;5003219;28;20037;-82
2022/12/08 05:22:35;;;;;;;28.55;21.00;;;;;;;1.88;100.00;100708.31;5006268;28;20041;-83
2022/12/08 05:25:00;;;;;;;29.75;21.55;;;;;;;1.88;100.00;100714.47;5008849;28;20025;-82
2022/12/08 05:27:25;;;;;;;31.13;23.23;;;;;;;1.87;100.00;100712.72;5008207;28;20601;-82
2022/12/08 05:29:51;;;;;;;34.30;24.67;;;;;;;1.87;100.00;100715.34;5010163;28;20092;-83
2022/12/08 05:32:16;;;;;;;35.63;26.08;;;;;;;1.88;100.00;100711.84;5008619;28;20044;-83
2022/12/08 05:34:41;;;;;;;36.88;27.75;;;;;;;1.88;100.00;100709.22;5005584;28;20135;-82
2022/12/08 05:37:07;;;;;;;38.72;28.20;;;;;;;1.88;100.00;100706.59;5008967;28;20034;-82
2022/12/08 05:39:32;;;;;;;38.20;29.90;;;;;;;1.87;100.00;100706.59;5008837;28;20030;-82
2022/12/08 05:41:58;;;;;;;39.60;29.77;;;;;;;1.87;100.00;100696.97;5002020;28;20034;-82
2022/12/08 05:44:24;;;;;;;38.78;30.20;;;;;;;1.85;100.00;100698.78;4997539;28;20028;-83
2022/12/08 05:46:50;;;;;;;37.40;28.90;;;;;;;1.80;100.00;100692.75;4994670;28;20084;-83
2022/12/08 05:49:15;;;;;;;35.63;28.75;;;;;;;1.82;100.00;100698.81;5013225;28;20501;-82
2022/12/08 05:51:40;;;;;;;35.90;27.42;;;;;;;1.74;100.00;100685.81;5009542;28;20253;-83
2022/12/08 05:54:06;;;;;;;31.00;25.85;;;;;;;1.82;100.00;100698.81;5003313;28;20018;-83
2022/12/08 05:56:31;;;;;;;29.05;24.13;;;;;;;1.76;100.00;100696.31;5013123;28;20033;-83
2022/12/08 05:58:56;;;;;;;29.98;21.80;;;;;;;1.80;100.00;100695.38;5003272;28;20161;-84
2022/12/08 06:01:29;;;;;;;22.73;16.70;;;;;;;1.76;100.00;100701.56;4998858;28;20475;-84
2022/12/08 06:03:57;;;;;;;14.63;12.57;;;;;;;1.66;100.00;100684.22;5002851;28;20855;-84
2022/12/08 06:06:23;;;;;;;17.98;12.63;;;;;;;1.62;100.00;100680.78;5004406;28;20057;-84
2022/12/08 06:08:48;;;;;;;18.30;12.18;;;;;;;1.69;100.00;100692.91;5006706;28;20018;-84
2022/12/08 06:11:20;;;;;;;15.57;12.07;;;;;;;1.67;100.00;100699.06;5004577;28;20030;-83
2022/12/08 06:13:46;;;;;;;14.75;11.52;;;;;;;1.67;100.00;100696.44;5005006;28;20037;-84
2022/12/08 06:16:11;;;;;;;16.70;11.52;;;;;;;1.65;100.00;100687.75;5005057;28;20034;-84
2022/12/08 06:18:36;;;;;;;13.32;11.27;;;;;;;1.67;100.00;100691.19;5005768;28;20041;-84
2022/12/08 06:21:06;;;;;;;15.60;11.52;;;;;;;1.66;100.00;100694.72;5004511;28;20108;-82
2022/12/08 06:23:32;;;;;;;19.60;12.70;;;;;;;1.67;100.00;100691.19;5008452;28;20483;-82
2022/12/08 06:26:03;;;;;;;17.35;13.02;;;;;;;1.69;100.00;100692.06;5008005;28;20024;-82
2022/12/08 06:28:29;;;;;;;17.73;12.98;;;;;;;1.69;100.00;100689.44;5012591;28;20167;-81
2022/12/08 06:30:55;;;;;;;19.48;14.63;;;;;;;1.67;100.00;100680.69;5007915;28;20033;-83
2022/12/08 06:33:20;;;;;;;22.98;17.27;;;;;;;1.68;100.00;100679.84;5006964;28;20026;-82
2022/12/08 06:35:45;;;;;;;24.02;18.58;;;;;;;1.70;100.00;100680.66;5006417;28;20096;-83
2022/12/08 06:38:10;;;;;;;26.90;19.55;;;;;;;1.66;100.00;100679.84;5005967;28;20042;-83
2022/12/08 06:40:36;;;;;;;31.25;20.63;;;;;;;1.67;100.00;100663.22;5003079;28;20251;-82
2022/12/08 06:43:01;;;;;;;32.67;22.83;;;;;;;1.68;100.00;100672.81;5006284;28;20026;-82
2022/12/08 06:45:26;;;;;;;34.78;24.58;;;;;;;1.67;100.00;100676.34;5005161;28;20018;-83
2022/12/08 06:47:51;;;;;;;37.38;26.02;;;;;;;1.68;100.00;100674.59;5006182;28;20030;-83
2022/12/08 06:50:17;;;;;;;35.83;24.95;;;;;;;1.68;100.00;100674.59;5003612;28;20037;-81
2022/12/08 06:52:42;;;;;;;38.50;26.02;;;;;;;1.66;100.00;100678.97;5007175;28;20588;-81
2022/12/08 06:55:09;;;;;;;40.20;27.67;;;;;;;1.61;100.00;100671.19;5009513;28;20050;-82
2022/12/08 06:57:34;;;;;;;40.20;27.90;;;;;;;1.69;100.00;100687.66;5011784;28;20036;-82
2022/12/08 06:59:59;;;;;;;46.17;31.45;;;;;;;1.68;100.00;100685.06;5001360;28;20026;-82
2022/12/08 07:02:25;;;;;;;44.58;31.08;;;;;;;1.69;100.00;100686.81;4999453;28;20033;-82
2022/12/08 07:04:50;;;;;;;51.88;33.30;;;;;;;1.66;100.00;100678.97;4999379;28;20022;-82
2022/12/08 07:07:15;;;;;;;44.25;32.70;;;;;;;1.70;100.00;100688.53;5001362;28;20096;-83
2022/12/08 07:09:41;;;;;;;53.60;33.92;;;;;;;1.67;100.00;100684.22;4997608;28;20038;-83
2022/12/08 07:12:06;;;;;;;52.83;36.42;;;;;;;1.70;100.00;100689.38;4995329;28;20143;-83
2022/12/08 07:14:31;;;;;;;53.70;37.55;;;;;;;1.67;100.00;100685.94;5000579;28;20460;-84
2022/12/08 07:16:57;;;;;;;57.75;39.88;;;;;;;1.64;100.00;100678.16;4998354;28;20029;-83
2022/12/08 07:19:22;;;;;;;58.08;40.40;;;;;;;1.67;100.00;100680.69;4996188;28;20495;-84
2022/12/08 07:21:47;;;;;;;55.60;40.30;;;;;;;1.70;100.00;100685.91;5002584;28;21827;-83
2022/12/08 07:24:13;;;;;;;56.85;41.00;;;;;;;1.65;100.00;100679.88;5004559;28;20112;-83
2022/12/08 07:26:39;;;;;;;60.22;43.50;;;;;;;1.70;100.00;100676.28;4998338;28;20458;-83
2022/12/08 07:29:04;;;;;;;61.05;42.45;;;;;;;1.66;100.00;100676.34;5003121;28;20022;-84
2022/12/08 07:31:29;;;;;;;63.10;44.58;;;;;;;1.67;100.00;100684.22;5003719;28;20574;-83
2022/12/08 07:33:56;;;;;;;63.38;45.33;;;;;;;1.63;100.00;100677.28;5006295;28;20037;-82
2022/12/08 07:36:22;;;;;;;62.80;44.85;;;;;;;1.64;100.00;100686.03;4996921;28;20034;-83
2022/12/08 07:38:48;;;;;;;64.07;45.72;;;;;;;1.62;100.00;100672.91;4999987;28;20045;-83
2022/12/08 07:41:15;;;;;;;59.15;43.40;;;;;;;1.66;100.00;100678.97;5003732;28;20473;-84
2022/12/08 07:43:41;;;;;;;64.93;46.17;;;;;;;1.71;100.00;100685.00;5007870;28;20030;-83
2022/12/08 07:46:07;;;;;;;63.22;45.67;;;;;;;1.64;100.00;100671.13;5005599;28;20108;-82
2022/12/08 07:48:32;;;;;;;62.55;45.08;;;;;;;1.69;100.00;100679.78;5009853;28;20235;-83
2022/12/08 07:51:03;;;;;;;61.38;45.05;;;;;;;1.60;100.00;100668.59;5007244;28;20049;-84
2022/12/08 07:53:28;;;;;;;60.20;45.53;;;;;;;1.60;100.00;100674.72;5001780;28;20485;-82
2022/12/08 07:55:54;;;;;;;58.85;44.45;;;;;;;1.64;100.00;100680.78;5003101;28;20033;-82
2022/12/08 07:58:19;;;;;;;58.85;44.67;;;;;;;1.56;100.00;100665.16;5003138;28;20030;-83
2022/12/08 08:00:44;;;;;;;57.67;44.03;;;;;;;1.63;100.00;100682.53;4994938;28;20091;-83
2022/12/08 08:03:10;;;;;;;63.10;46.08;;;;;;;1.66;100.00;100686.84;5002930;28;20060;-83
2022/12/08 08:05:36;;;;;;;57.70;45.88;;;;;;;1.63;100.00;100682.53;5002563;28;20065;-83
2022/12/08 08:08:01;;;;;;;60.33;45.80;;;;;;;1.63;100.00;100694.75;5005904;28;20536;-83
2022/12/08 08:10:27;;;;;;;59.35;44.75;;;;;;;1.63;100.00;100686.88;5009116;28;20029;-83
2022/12/08 08:12:52;;;;;;;56.25;44.60;;;;;;;1.57;100.00;100679.13;5004966;28;20068;-82
2022/12/08 08:15:19;;;;;;;59.35;44.80;;;;;;;1.65;100.00;100693.00;5011831;28;20025;-82
2022/12/08 08:17:49;;;;;;;58.03;44.60;;;;;;;1.65;100.00;100703.50;4995524;28;20030;-82
2022/12/08 08:20:14;;;;;;;58.55;45.28;;;;;;;1.59;100.00;100691.34;4998620;28;20118;-82
2022/12/08 08:22:39;;;;;;;53.20;42.47;;;;;;;1.59;100.00;100688.72;5000623;28;20089;-83
2022/12/08 08:25:05;;;;;;;60.53;43.78;;;;;;;1.63;100.00;100697.38;5002660;28;20026;-83
2022/12/08 08:27:31;;;;;;;54.85;42.50;;;;;;;1.66;100.00;100697.34;5001469;28;20033;-83
2022/12/08 08:29:56;;;;;;;57.65;43.80;;;;;;;1.67;100.00;100696.44;4994896;28;20561;-83
2022/12/08 08:32:21;;;;;;;57.00;44.10;;;;;;;1.66;100.00;100686.84;5000896;28;20545;-82
2022/12/08 08:34:46;;;;;;;60.22;44.13;;;;;;;1.62;100.00;100680.78;4995323;28;20034;-82
2022/12/08 08:37:12;;;;;;;56.45;44.35;;;;;;;1.69;100.00;100690.28;4999265;28;20030;-82
2022/12/08 08:39:37;;;;;;;56.38;44.13;;;;;;;1.69;100.00;100689.44;5004603;28;20309;-83
2022/12/08 08:42:03;;;;;;;57.03;42.85;;;;;;;1.69;100.00;100689.44;5007659;28;20113;-83
2022/12/08 08:44:28;;;;;;;58.95;44.65;;;;;;;1.67;100.00;100684.22;5003457;28;20030;-83
2022/12/08 08:46:53;;;;;;;59.70;44.42;;;;;;;1.65;100.00;100685.97;5004534;28;20410;-83
2022/12/08 08:49:19;;;;;;;55.58;42.90;;;;;;;1.60;100.00;100674.72;5014725;28;20033;-83
2022/12/08 08:51:45;;;;;;;60.25;44.15;;;;;;;1.65;100.00;100685.97;5017109;28;20050;-82
2022/12/08 08:54:10;;;;;;;57.90;44.97;;;;;;;1.69;100.00;100689.44;5009873;28;20038;-82
2022/12/08 08:56:35;;;;;;;61.83;45.05;;;;;;;1.68;100.00;100692.94;5012360;28;20056;-82
2022/12/08 08:59:01;;;;;;;60.17;44.05;;;;;;;1.67;100.00;100686.84;5002381;28;20394;-81
2022/12/08 09:01:27;;;;;;;56.08;42.25;;;;;;;1.64;100.00;100676.38;5008717;28;20231;-82
2022/12/08 09:03:54;;;;;;;60.08;45.13;;;;;;;1.62;100.00;100677.28;5002449;28;20467;-82
2022/12/08 09:06:19;;;;;;;60.20;44.97;;;;;;;1.56;100.00;100672.16;5003835;28;20053;-82
2022/12/08 09:08:45;;;;;;;60.42;45.60;;;;;;;1.67;100.00;100684.22;5005015;28;20079;-82
2022/12/08 09:11:11;;;;;;;59.38;44.35;;;;;;;1.68;100.00;100680.69;5002980;28;20084;-82
2022/12/08 09:13:36;;;;;;;65.22;46.75;;;;;;;1.70;100.00;100675.41;5003423;28;20034;-82
2022/12/08 09:16:04;;;;;;;60.65;45.75;;;;;;;1.67;100.00;100672.81;5004080;28;20034;-81
2022/12/08 09:18:29;;;;;;;61.30;46.58;;;;;;;1.78;100.00;100680.53;4995562;28;20022;-82
2022/12/08 09:20:55;;;;;;;63.03;45.42;;;;;;;1.81;100.00;100689.22;5003070;28;20064;-82
2022/12/08 09:23:21;;;;;;;59.78;45.70;;;;;;;1.83;100.00;100695.28;5000799;28;20036;-82
2022/12/08 09:25:46;;;;;;;60.55;45.53;;;;;;;1.81;100.00;100693.59;5004587;28;20586;-82
2022/12/08 09:28:13;;;;;;;62.72;47.00;;;;;;;1.80;100.00;100687.50;5003790;28;20030;-82
2022/12/08 09:30:39;;;;;;;58.80;45.65;;;;;;;1.85;100.00;100688.28;4999874;28;20483;-82
2022/12/08 09:33:04;;;;;;;61.00;45.67;;;;;;;1.85;100.00;100700.53;5003162;28;20040;-82
2022/12/08 09:35:30;;;;;;;61.38;45.15;;;;;;;1.83;100.00;100689.19;5003969;28;20467;-82
2022/12/08 09:37:55;;;;;;;58.35;46.10;;;;;;;1.82;100.00;100693.56;5006873;28;20026;-83
2022/12/08 09:40:23;;;;;;;62.33;46.60;;;;;;;1.82;100.00;100690.09;5000893;28;20320;-83
2022/12/08 09:43:14;;;;;;;65.15;48.50;;;;;;;1.82;100.00;100680.44;5006874;28;20068;-82
2022/12/08 09:45:40;;;;;;;66.90;48.50;;;;;;;1.78;100.00;100680.53;4996646;28;20022;-81
2022/12/08 09:48:21;;;;;;;63.90;48.53;;;;;;;1.84;100.00;100676.06;4990735;28;20028;-82
2022/12/08 09:50:51;;;;;;;69.10;50.47;;;;;;;1.88;100.00;100676.84;5004919;28;20054;-82
2022/12/08 09:53:16;;;;;;;76.90;52.90;;;;;;;1.94;100.00;100676.75;5008195;28;20026;-82
2022/12/08 09:55:44;;;;;;;66.50;48.95;;;;;;;1.89;100.00;100668.09;5004797;28;20135;-82
2022/12/08 09:58:26;;;;;;;71.50;48.10;;;;;;;1.85;100.00;100658.53;5000883;28;20794;-81
2022/12/08 10:00:51;;;;;;;67.03;48.03;;;;;;;1.93;100.00;100675.03;4994716;28;20574;-82
2022/12/08 10:03:17;;;;;;;65.93;46.53;;;;;;;1.92;100.00;100668.00;5002679;28;20029;-82
2022/12/08 10:05:54;;;;;;;70.40;48.30;;;;;;;1.88;100.00;100668.97;4999160;28;20033;-83
2022/12/08 10:08:27;;;;;;;68.38;46.80;;;;;;;1.85;100.00;100661.16;4998578;28;20048;-82
2022/12/08 10:11:09;;;;;;;68.95;48.20;;;;;;;1.94;100.00;100667.09;5000675;28;20362;-82
2022/12/08 10:13:58;;;;;;;63.65;46.03;;;;;;;2.00;100.00;100676.63;5003879;28;20040;-82
2022/12/08 10:16:35;;;;;;;62.45;45.88;;;;;;;2.00;100.00;100668.75;4984535;28;20041;-81
2022/12/08 10:19:13;;;;;;;60.45;44.88;;;;;;;1.98;100.00;100660.91;5006163;28;20029;-83
2022/12/08 10:21:39;;;;;;;60.85;44.30;;;;;;;2.02;100.00;100647.72;4998070;28;20084;-82
2022/12/08 10:24:14;;;;;;;61.28;42.40;;;;;;;2.04;100.00;100666.94;5006240;28;20453;-81
2022/12/08 10:26:40;;;;;;;58.10;42.70;;;;;;;1.99;100.00;100651.25;5007076;28;20060;-81
2022/12/08 10:29:11;;;;;;;62.42;43.00;;;;;;;2.02;100.00;100661.72;4984177;28;20069;-81
2022/12/08 10:31:36;;;;;;;52.38;40.38;;;;;;;1.96;100.00;100648.69;5004537;28;20057;-81
2022/12/08 10:34:16;;;;;;;51.22;40.22;;;;;;;1.99;100.00;100660.00;5000124;28;20061;-82
2022/12/08 10:36:55;;;;;;;59.00;38.97;;;;;;;1.98;100.00;100652.16;4996990;28;20124;-81
2022/12/08 10:39:42;;;;;;;47.55;35.13;;;;;;;1.96;100.00;100657.44;4997692;28;20033;-82
2022/12/08 10:42:10;;;;;;;43.13;33.70;;;;;;;1.95;100.00;100657.47;4994378;28;20026;-81
2022/12/08 10:45:01;;;;;;;45.47;33.97;;;;;;;1.93;100.00;100647.00;4997868;28;20026;-82
2022/12/08 10:47:28;;;;;;;41.97;31.38;;;;;;;1.91;100.00;100654.03;4993764;28;20498;-82
2022/12/08 10:50:19;;;;;;;40.45;32.20;;;;;;;1.89;100.00;100650.59;4999230;28;20959;-82
2022/12/08 10:52:44;;;;;;;44.15;32.78;;;;;;;1.90;100.00;100648.81;4993520;28;20035;-81
2022/12/08 10:55:19;;;;;;;46.75;33.55;;;;;;;1.92;100.00;100644.41;4990740;28;20037;-83
2022/12/08 10:57:45;;;;;;;48.22;34.60;;;;;;;1.91;100.00;100640.91;4994136;28;20550;-82
2022/12/08 11:00:23;;;;;;;44.60;32.85;;;;;;;1.91;100.00;100646.16;5002766;28;20053;-84
2022/12/08 11:02:58;;;;;;;44.75;33.22;;;;;;;1.90;100.00;100649.69;4998354;28;20029;-83
2022/12/08 11:05:28;;;;;;;49.03;37.08;;;;;;;1.86;100.00;100640.13;5002446;28;20109;-83
2022/12/08 11:07:54;;;;;;;46.65;34.42;;;;;;;1.86;100.00;100641.91;4997746;28;20037;-86
2022/12/08 11:10:29;;;;;;;48.08;35.88;;;;;;;1.90;100.00;100647.06;4995968;28;20034;-85
2022/12/08 11:12:59;;;;;;;45.60;35.50;;;;;;;1.91;100.00;100645.28;5000177;28;20064;-84
2022/12/08 11:15:32;;;;;;;48.05;35.97;;;;;;;1.87;100.00;100628.72;4993072;28;20471;-85
2022/12/08 11:18:08;;;;;;;51.03;37.72;;;;;;;1.92;100.00;100631.28;4999048;28;20036;-86
2022/12/08 11:20:40;;;;;;;45.00;34.67;;;;;;;1.96;100.00;100631.19;4999787;28;20511;-84